Time;durP1;ratioP1;P1;durP2;ratioP2;P2;SDS_P1;SDS_P2;PMS_P1;PMS_P2;Temp;Humidity;BMP_temperature;BMP_pressure;BME280_temperature;BME280_humidity;BME280_pressure;Samples;Min_cycle;Max_cycle;Signal;HPM_P1;HPM_P2
2022/02/18 05:34:50;;;;;;;1.90;1.40;;;;;;;11.77;53.80;100304.86;1786750;79;21045;-70
2022/02/18 05:37:16;;;;;;;2.35;1.30;;;;;;;11.77;53.50;100316.14;1761310;81;21474;-75
2022/02/18 05:39:43;;;;;;;2.00;1.67;;;;;;;11.77;53.36;100320.50;1753960;81;21478;-72
2022/02/18 05:42:09;;;;;;;2.17;1.30;;;;;;;11.75;52.96;100323.61;1732563;81;21637;-71
2022/02/18 05:44:36;;;;;;;1.62;1.40;;;;;;;11.75;53.04;100324.91;1756047;80;20986;-74
2022/02/18 05:47:03;;;;;;;3.12;1.75;;;;;;;11.71;53.16;100332.44;1749509;81;21052;-76
2022/02/18 05:49:30;;;;;;;1.30;1.20;;;;;;;11.67;53.40;100342.56;1754497;80;21568;-78
2022/02/18 05:51:58;;;;;;;2.37;1.40;;;;;;;11.60;53.48;100352.77;1754737;80;21477;-74
2022/02/18 05:54:24;;;;;;;3.22;1.32;;;;;;;11.58;53.61;100362.39;1750747;81;20955;-72
2022/02/18 05:56:52;;;;;;;5.33;1.80;;;;;;;11.58;53.84;100367.59;1757867;81;21011;-75
2022/02/18 05:59:19;;;;;;;1.72;1.30;;;;;;;11.56;54.11;100372.01;1754345;81;21022;-73
2022/02/18 06:01:46;;;;;;;1.72;1.37;;;;;;;11.53;54.21;100376.86;1755632;80;21024;-73
2022/02/18 06:04:12;;;;;;;4.53;1.47;;;;;;;11.51;54.51;100386.92;1755799;81;20958;-73
2022/02/18 06:06:41;;;;;;;2.08;1.52;;;;;;;11.50;55.04;100393.88;1758205;80;21514;-71
2022/02/18 06:09:08;;;;;;;2.33;1.45;;;;;;;11.54;55.39;100388.97;1757786;81;20983;-77
2022/02/18 06:11:37;;;;;;;3.83;1.62;;;;;;;11.60;55.60;100402.28;1756613;81;20978;-71
2022/02/18 06:14:03;;;;;;;3.33;1.62;;;;;;;11.67;55.87;100400.75;1753045;81;21400;-73
2022/02/18 06:16:30;;;;;;;2.70;1.75;;;;;;;11.76;55.99;100408.30;1753683;81;21050;-70
2022/02/18 06:18:57;;;;;;;2.52;1.75;;;;;;;11.82;56.11;100412.45;1753741;81;21019;-72
2022/02/18 06:21:23;;;;;;;1.60;1.22;;;;;;;11.89;56.11;100419.19;1754642;81;21473;-73
2022/02/18 06:23:49;;;;;;;6.00;2.37;;;;;;;11.95;56.17;100428.11;1756906;80;21473;-73
2022/02/18 06:26:16;;;;;;;1.50;1.10;;;;;;;12.01;56.11;100427.91;1754469;81;21505;-73
2022/02/18 06:28:42;;;;;;;1.85;1.32;;;;;;;12.04;56.14;100433.01;1757465;80;21479;-74
2022/02/18 06:31:09;;;;;;;2.60;1.52;;;;;;;12.08;56.11;100429.39;1757401;81;21482;-76
2022/02/18 06:33:36;;;;;;;1.00;0.90;;;;;;;12.12;56.02;100431.86;1755191;81;20979;-74
2022/02/18 06:36:04;;;;;;;2.50;1.10;;;;;;;12.16;55.85;100436.52;1770328;79;21085;-74
2022/02/18 06:38:31;;;;;;;2.12;0.90;;;;;;;12.19;55.72;100441.20;1797759;78;21006;-71
2022/02/18 06:40:58;;;;;;;2.83;2.60;;;;;;;12.20;55.62;100444.63;1797550;78;20983;-74
2022/02/18 06:43:24;;;;;;;3.20;1.30;;;;;;;12.23;55.53;100454.54;1792769;78;21025;-70
2022/02/18 06:45:52;;;;;;;1.80;1.10;;;;;;;12.26;55.31;100455.73;1800226;79;21474;-74
2022/02/18 06:48:21;;;;;;;1.75;1.17;;;;;;;12.29;55.18;100460.00;1795558;79;21455;-70
2022/02/18 06:50:48;;;;;;;1.37;1.00;;;;;;;12.32;55.15;100456.00;1804029;78;21029;-72
2022/02/18 06:53:15;;;;;;;1.80;1.22;;;;;;;12.34;54.98;100452.88;1799657;78;20998;-70
2022/02/18 06:55:41;;;;;;;2.75;1.27;;;;;;;12.38;54.95;100459.70;1798183;78;20983;-71
2022/02/18 06:58:09;;;;;;;2.20;1.30;;;;;;;12.40;54.96;100464.41;1797785;78;21517;-72
2022/02/18 07:00:36;;;;;;;1.50;1.35;;;;;;;12.43;54.93;100464.30;1797956;78;21034;-75
2022/02/18 07:03:04;;;;;;;2.60;1.40;;;;;;;12.46;54.92;100466.81;1798121;78;21034;-73
2022/02/18 07:05:30;;;;;;;1.65;1.35;;;;;;;12.48;54.90;100470.22;1799594;78;20998;-75
2022/02/18 07:07:58;;;;;;;1.82;1.50;;;;;;;12.52;54.90;100470.52;1801292;78;21010;-72
2022/02/18 07:10:24;;;;;;;2.20;1.47;;;;;;;12.55;54.97;100470.39;1796831;79;20971;-73
2022/02/18 07:12:51;;;;;;;2.30;1.37;;;;;;;12.59;54.82;100474.61;1787529;78;21029;-76
2022/02/18 07:15:19;;;;;;;1.52;1.32;;;;;;;12.61;54.82;100472.80;1794416;78;20983;-73
2022/02/18 07:17:45;;;;;;;1.80;1.40;;;;;;;12.67;54.82;100471.75;1801336;78;21033;-71
2022/02/18 07:20:14;;;;;;;1.62;1.17;;;;;;;12.73;54.92;100468.93;1799631;78;20994;-75
2022/02/18 07:22:42;;;;;;;2.15;1.50;;;;;;;12.79;54.76;100471.32;1799099;78;21385;-71
2022/02/18 07:25:09;;;;;;;1.40;1.30;;;;;;;12.79;54.31;100472.19;1800421;78;21042;-75
2022/02/18 07:27:35;;;;;;;2.02;1.80;;;;;;;12.76;53.76;100474.88;1796604;79;20978;-77
2022/02/18 07:30:04;;;;;;;2.58;1.87;;;;;;;12.69;53.47;100478.63;1804398;78;20997;-72
2022/02/18 07:32:30;;;;;;;3.55;1.80;;;;;;;12.65;53.42;100479.61;1800238;78;20971;-71
2022/02/18 07:34:57;;;;;;;2.50;1.85;;;;;;;12.61;53.22;100503.29;1798484;78;20927;-71
2022/02/18 07:37:23;;;;;;;3.05;2.05;;;;;;;12.54;52.98;100492.20;1797864;78;21026;-72
2022/02/18 07:39:49;;;;;;;1.80;1.60;;;;;;;12.43;52.85;100493.00;1798309;78;21010;-71
2022/02/18 07:42:16;;;;;;;3.17;2.22;;;;;;;12.35;52.52;100492.40;1796804;78;21002;-75
2022/02/18 07:44:44;;;;;;;3.15;2.20;;;;;;;12.30;52.21;100498.24;1798358;78;20991;-70
2022/02/18 07:47:10;;;;;;;2.85;1.77;;;;;;;12.24;52.28;100502.36;1804309;78;21069;-73
2022/02/18 07:49:37;;;;;;;2.83;1.90;;;;;;;12.22;51.79;100502.83;1796872;79;21010;-73
2022/02/18 07:52:04;;;;;;;5.37;2.12;;;;;;;12.17;51.86;100502.14;1803782;78;21038;-71
2022/02/18 07:54:31;;;;;;;2.42;1.80;;;;;;;12.15;51.66;100514.38;1800321;78;20983;-73
2022/02/18 07:56:58;;;;;;;3.40;1.70;;;;;;;12.12;51.26;100522.28;1798299;78;21533;-73
2022/02/18 07:59:24;;;;;;;2.33;1.67;;;;;;;12.10;50.95;100521.48;1798104;78;21428;-71
2022/02/18 08:01:51;;;;;;;3.45;2.00;;;;;;;12.13;50.69;100533.13;1797976;78;21486;-72
2022/02/18 08:04:17;;;;;;;2.27;1.57;;;;;;;12.13;50.09;100530.08;1795886;78;21498;-74
2022/02/18 08:06:45;;;;;;;2.00;1.70;;;;;;;12.13;49.60;100541.82;1798789;78;20990;-69
2022/02/18 08:09:12;;;;;;;2.08;1.52;;;;;;;12.14;50.14;100538.73;1800365;79;20966;-70
2022/02/18 08:11:40;;;;;;;2.37;1.40;;;;;;;12.20;49.97;100545.06;1798353;78;21482;-71
2022/02/18 08:14:06;;;;;;;2.25;1.50;;;;;;;12.19;49.29;100545.53;1798682;78;21010;-72
2022/02/18 08:16:33;;;;;;;1.70;1.60;;;;;;;12.19;49.14;100544.23;1797953;78;21049;-77
2022/02/18 08:19:00;;;;;;;3.15;1.75;;;;;;;12.16;49.20;100553.89;1765824;79;20999;-71
2022/02/18 08:21:27;;;;;;;2.92;1.87;;;;;;;12.15;48.91;100558.72;1798444;78;21002;-71
2022/02/18 08:23:53;;;;;;;2.58;1.92;;;;;;;12.10;48.48;100554.94;1801633;78;21022;-72
2022/02/18 08:26:23;;;;;;;2.75;1.72;;;;;;;12.06;48.94;100556.38;1801502;78;20982;-75
2022/02/18 08:28:49;;;;;;;4.28;1.75;;;;;;;12.05;48.61;100552.94;1702588;83;21015;-71
2022/02/18 08:31:16;;;;;;;3.50;2.15;;;;;;;12.03;48.54;100564.31;1702375;83;20995;-72
2022/02/18 08:33:43;;;;;;;2.47;1.67;;;;;;;12.03;48.59;100565.63;1703164;84;21078;-74
2022/02/18 08:36:11;;;;;;;3.05;2.00;;;;;;;12.01;48.65;100572.64;1707672;83;21041;-71
2022/02/18 08:38:38;;;;;;;3.22;2.02;;;;;;;12.00;48.64;100574.83;1719145;82;20975;-75
2022/02/18 08:41:04;;;;;;;2.75;1.82;;;;;;;12.00;48.62;100573.52;1717806;82;20978;-74
2022/02/18 08:43:32;;;;;;;2.87;2.05;;;;;;;12.03;48.52;100575.61;1715064;83;21504;-72
2022/02/18 08:45:59;;;;;;;5.67;2.10;;;;;;;12.06;48.39;100572.03;1716351;83;21414;-74
2022/02/18 08:48:25;;;;;;;3.02;1.95;;;;;;;12.12;48.72;100576.61;1716272;82;21072;-74
2022/02/18 08:50:52;;;;;;;2.20;2.00;;;;;;;12.15;48.78;100576.97;1716268;83;21022;-72
2022/02/18 08:53:18;;;;;;;2.52;2.10;;;;;;;12.17;48.73;100576.03;1718707;83;21041;-72
2022/02/18 08:55:45;;;;;;;3.37;2.40;;;;;;;12.20;48.39;100576.36;1722912;83;20962;-70
2022/02/18 08:58:12;;;;;;;6.90;3.20;;;;;;;12.21;48.28;100583.30;1716431;83;21125;-72
2022/02/18 09:00:39;;;;;;;5.03;3.47;;;;;;;12.21;48.37;100587.22;1713924;83;21521;-71
2022/02/18 09:03:06;;;;;;;4.53;3.40;;;;;;;12.22;48.25;100577.17;1716198;83;21392;-76
2022/02/18 09:05:33;;;;;;;3.65;2.52;;;;;;;12.24;47.75;100587.14;1716268;83;21006;-73
2022/02/18 09:08:01;;;;;;;3.30;1.85;;;;;;;12.25;47.11;100582.31;1711314;83;21018;-72
2022/02/18 09:10:28;;;;;;;2.12;1.92;;;;;;;12.25;46.83;100595.34;1715395;82;21049;-72
2022/02/18 09:12:54;;;;;;;2.67;2.05;;;;;;;12.28;46.89;100589.19;1706999;83;21501;-72
2022/02/18 09:15:21;;;;;;;3.42;1.65;;;;;;;12.28;46.45;100590.05;1718693;83;21619;-73
2022/02/18 09:17:49;;;;;;;2.67;2.22;;;;;;;12.27;46.18;100589.63;1634057;88;21075;-73
2022/02/18 09:20:16;;;;;;;2.52;1.60;;;;;;;12.28;46.46;100591.36;1619652;87;21116;-73
2022/02/18 09:22:43;;;;;;;3.87;1.80;;;;;;;12.31;46.02;100598.20;1604517;89;21606;-73
2022/02/18 09:25:09;;;;;;;3.80;1.80;;;;;;;12.32;46.29;100605.15;1648179;84;21392;-74
2022/02/18 09:27:36;;;;;;;2.45;1.80;;;;;;;12.31;45.70;100604.29;1671845;86;20987;-75
2022/02/18 09:30:06;;;;;;;2.95;1.52;;;;;;;12.32;45.56;100612.98;1672031;86;20963;-74
2022/02/18 09:32:34;;;;;;;;;;;;;;;12.34;45.94;100609.42;1674451;84;21026;-74
2022/02/18 09:35:02;;;;;;;2.55;1.60;;;;;;;12.35;45.81;100608.51;1672062;86;20414;-77
2022/02/18 09:37:29;;;;;;;2.95;1.92;;;;;;;12.36;45.42;100616.76;1668803;85;21085;-72
2022/02/18 09:39:55;;;;;;;2.85;1.70;;;;;;;12.38;45.57;100621.92;1669209;85;21094;-71
2022/02/18 09:42:22;;;;;;;2.67;1.50;;;;;;;12.39;45.51;100627.52;1667020;85;21050;-71
2022/02/18 09:44:49;;;;;;;2.87;1.42;;;;;;;12.39;44.73;100628.83;1669072;85;21109;-72
2022/02/18 09:47:16;;;;;;;4.20;1.70;;;;;;;12.39;45.35;100625.77;1658580;86;20987;-71
2022/02/18 09:49:43;;;;;;;2.12;1.30;;;;;;;12.43;45.47;100637.83;1669053;85;21006;-73
2022/02/18 09:52:13;;;;;;;2.75;2.10;;;;;;;12.46;45.42;100640.35;1668614;85;21063;-73
2022/02/18 09:54:40;;;;;;;3.08;1.90;;;;;;;12.51;45.77;100648.05;1669139;85;21014;-72
2022/02/18 09:57:07;;;;;;;4.25;2.00;;;;;;;12.56;45.26;100650.91;1657479;86;21540;-72
2022/02/18 09:59:33;;;;;;;3.42;1.90;;;;;;;12.60;44.61;100653.83;1671245;85;21003;-74
2022/02/18 10:02:03;;;;;;;3.70;1.82;;;;;;;12.64;44.61;100654.57;1670374;85;21006;-71
2022/02/18 10:04:30;;;;;;;2.90;1.50;;;;;;;12.67;44.15;100654.05;1669511;85;21054;-72
2022/02/18 10:06:57;;;;;;;1.60;1.20;;;;;;;12.70;44.20;100653.92;1657688;86;21090;-75
2022/02/18 10:09:44;;;;;;;7.62;4.58;;;;;;;12.73;43.94;100652.54;1658563;85;21031;-72
2022/02/18 10:12:13;;;;;;;2.90;1.47;;;;;;;12.78;43.95;100657.59;1668290;85;21475;-74
2022/02/18 10:14:59;;;;;;;2.08;1.27;;;;;;;12.82;43.85;100654.84;1696262;81;21002;-72
2022/02/18 10:17:47;;;;;;;3.25;1.40;;;;;;;12.87;43.93;100660.78;1763335;80;21045;-73
2022/02/18 10:20:19;;;;;;;3.50;1.45;;;;;;;12.94;43.54;100659.66;1762097;80;20966;-74
2022/02/18 10:22:58;;;;;;;3.10;1.25;;;;;;;12.99;42.68;100668.66;1762959;80;21029;-72
2022/02/18 10:25:27;;;;;;;2.02;1.12;;;;;;;13.02;42.42;100674.63;1763701;80;20962;-73
2022/02/18 10:27:54;;;;;;;1.67;1.07;;;;;;;13.05;42.49;100675.88;1758006;81;21668;-74
2022/02/18 10:33:12;;;;;;;4.50;1.32;;;;;;;13.14;42.07;100681.70;1776825;80;21010;-75
2022/02/18 10:35:39;;;;;;;2.33;1.32;;;;;;;13.17;41.91;100681.61;1661096;85;21577;-73
2022/02/18 10:38:07;;;;;;;2.45;1.12;;;;;;;13.20;41.42;100689.33;1641807;85;21105;-71
2022/02/18 10:40:49;;;;;;;2.75;1.50;;;;;;;13.20;41.46;100684.10;1642755;86;21046;-74
2022/02/18 10:43:25;;;;;;;1.70;1.00;;;;;;;13.22;41.60;100690.12;1656086;86;21034;-77
2022/02/18 10:46:01;;;;;;;4.62;1.27;;;;;;;13.23;41.88;100678.79;1636286;87;21164;-72
2022/02/18 10:48:33;;;;;;;3.27;1.25;;;;;;;13.24;41.59;100684.40;1638167;86;20990;-73
2022/02/18 10:51:11;;;;;;;1.98;1.15;;;;;;;13.25;41.53;100685.64;1625302;87;21077;-71
2022/02/18 10:53:47;;;;;;;0.68;0.68;;;;;;;13.24;40.96;100696.16;1661206;86;21049;-74
2022/02/18 10:56:17;;;;;;;3.45;0.93;;;;;;;13.23;41.14;100687.94;1660726;86;21057;-75
2022/02/18 10:58:50;;;;;;;1.12;0.88;;;;;;;13.24;41.17;100694.85;1665646;84;21030;-73
2022/02/18 11:01:21;;;;;;;2.05;0.90;;;;;;;13.28;40.90;100688.61;1656423;86;21504;-78
2022/02/18 11:04:01;;;;;;;2.12;1.15;;;;;;;13.29;40.67;100694.26;1642972;86;21022;-74
2022/02/18 11:06:32;;;;;;;;;;;;;;;13.33;40.61;100703.70;1631799;87;21026;-76
2022/02/18 11:09:10;;;;;;;2.70;1.37;;;;;;;13.35;40.72;100707.98;1568302;90;20113;-69
2022/02/18 11:11:44;;;;;;;1.80;1.30;;;;;;;13.39;40.71;100703.49;1606773;88;21638;-73
2022/02/18 11:14:17;;;;;;;2.70;1.20;;;;;;;13.43;40.92;100714.24;1602892;89;21064;-73
2022/02/18 11:16:52;;;;;;;2.85;1.17;;;;;;;13.46;41.40;100703.66;1602677;89;21702;-72
2022/02/18 11:19:16;;;;;;;4.10;1.10;;;;;;;13.50;41.36;100709.19;1601280;89;21084;-71
2022/02/18 11:21:42;;;;;;;3.95;1.10;;;;;;;13.51;41.26;100717.00;1605544;89;21037;-73
2022/02/18 11:24:09;;;;;;;4.50;1.15;;;;;;;13.52;41.35;100715.22;1605656;89;21150;-70
2022/02/18 11:26:35;;;;;;;3.22;1.22;;;;;;;13.54;41.31;100712.13;1641858;86;21069;-73
2022/02/18 11:29:07;;;;;;;2.17;1.37;;;;;;;13.55;41.48;100717.74;1646755;85;21022;-71
2022/02/18 11:31:39;;;;;;;2.52;1.12;;;;;;;13.59;41.34;100717.59;1656310;84;21046;-73
2022/02/18 11:34:29;;;;;;;1.67;1.22;;;;;;;13.61;41.15;100716.22;1653535;86;21030;-71
2022/02/18 11:37:13;;;;;;;3.08;1.50;;;;;;;13.65;41.18;100725.66;1632126;86;21090;-72
2022/02/18 11:40:13;;;;;;;1.85;1.12;;;;;;;13.67;40.81;100725.16;1652957;85;21056;-72
2022/02/18 11:42:52;;;;;;;4.17;1.95;;;;;;;13.69;40.87;100728.57;1661475;85;21044;-72
2022/02/18 11:45:18;;;;;;;2.15;1.22;;;;;;;13.72;40.81;100741.08;1658678;85;20971;-75
2022/02/18 11:47:48;;;;;;;2.17;1.40;;;;;;;13.74;40.96;100735.81;1661516;85;21050;-72
2022/02/18 11:50:17;;;;;;;3.47;1.37;;;;;;;13.77;40.58;100738.31;1661686;85;21041;-70
2022/02/18 11:52:49;;;;;;;1.65;1.40;;;;;;;13.80;41.03;100748.23;1661682;85;21570;-73
2022/02/18 11:55:35;;;;;;;3.30;1.92;;;;;;;13.82;41.34;100746.86;1623073;88;21004;-77
2022/02/18 11:58:08;;;;;;;1.70;1.22;;;;;;;13.83;40.79;100749.86;1623003;88;21059;-76
2022/02/18 12:00:48;;;;;;;2.05;1.10;;;;;;;13.85;40.27;100748.05;1612012;89;21000;-74
2022/02/18 12:03:24;;;;;;;2.80;1.57;;;;;;;13.87;40.56;100754.94;1612020;89;21044;-71
2022/02/18 12:06:20;;;;;;;1.85;1.32;;;;;;;13.90;40.65;100756.59;1620802;88;21070;-74
2022/02/18 12:11:17;;;;;;;1.95;1.35;;;;;;;13.94;39.84;100768.66;1561370;91;21083;-72
2022/02/18 12:14:04;;;;;;;2.87;1.55;;;;;;;13.96;39.72;100770.77;1576826;89;21520;-77
2022/02/18 12:16:32;;;;;;;1.42;1.05;;;;;;;13.98;39.66;100772.87;1632834;88;21088;-73
2022/02/18 12:19:13;;;;;;;4.35;1.17;;;;;;;13.96;39.70;100791.70;1634832;88;21089;-74
2022/02/18 12:22:02;;;;;;;3.90;1.30;;;;;;;13.96;39.86;100791.70;1631089;88;22461;-72
2022/02/18 12:24:47;;;;;;;1.50;1.40;;;;;;;13.96;39.94;100792.14;1632807;88;21065;-77
2022/02/18 12:27:31;;;;;;;2.60;1.50;;;;;;;13.94;39.88;100790.89;1634931;88;21009;-73
2022/02/18 12:30:00;;;;;;;2.83;1.32;;;;;;;13.93;39.35;100805.34;1634743;88;21030;-75
2022/02/18 12:32:25;;;;;;;1.60;1.30;;;;;;;13.88;39.83;100801.58;1634925;88;21049;-78
2022/02/18 12:35:04;;;;;;;2.52;1.50;;;;;;;13.85;39.91;100802.97;1629455;88;21123;-73
2022/02/18 12:40:04;;;;;;;3.08;1.22;;;;;;;13.94;40.52;100815.75;1599231;88;21632;-72
2022/02/18 12:42:31;;;;;;;1.35;0.93;;;;;;;13.99;39.51;100815.59;1591082;90;21593;-74
2022/02/18 12:45:00;;;;;;;1.85;0.95;;;;;;;14.06;39.61;100820.55;1590995;90;21076;-76
2022/02/18 12:47:32;;;;;;;1.85;0.98;;;;;;;14.11;40.03;100826.49;1591044;90;21041;-73
2022/02/18 12:50:01;;;;;;;3.08;1.20;;;;;;;14.13;39.64;100829.05;1610470;89;21597;-72
2022/02/18 12:52:29;;;;;;;1.60;1.27;;;;;;;14.08;39.28;100839.67;1641009;86;21052;-73
2022/02/18 12:54:59;;;;;;;4.12;1.32;;;;;;;14.02;38.43;100839.88;1613144;87;21579;-72
2022/02/18 12:57:31;;;;;;;1.85;1.35;;;;;;;13.95;38.87;100840.98;1598668;89;21113;-72
2022/02/18 12:59:57;;;;;;;2.08;1.62;;;;;;;13.92;38.98;100848.95;1593305;89;21681;-75
2022/02/18 13:02:51;;;;;;;1.87;1.40;;;;;;;13.92;39.42;100850.27;1629711;86;21539;-72
2022/02/18 13:07:59;;;;;;;1.72;1.42;;;;;;;13.97;38.96;100855.34;1533301;93;21091;-74
2022/02/18 13:10:38;;;;;;;2.22;1.45;;;;;;;14.01;38.49;100859.12;1517217;93;21137;-70
2022/02/18 13:13:15;;;;;;;2.42;1.80;;;;;;;14.04;38.82;100864.23;1482754;95;21095;-71
2022/02/18 13:15:44;;;;;;;2.72;1.40;;;;;;;14.09;38.46;100866.25;1492469;95;21086;-74
2022/02/18 13:18:12;;;;;;;1.90;1.52;;;;;;;14.10;37.45;100864.02;1492288;96;21075;-70
2022/02/18 13:20:42;;;;;;;1.95;1.20;;;;;;;14.11;37.17;100872.73;1476096;96;21103;-73
2022/02/18 13:23:27;;;;;;;1.85;1.40;;;;;;;14.11;37.24;100863.57;1458249;98;21103;-70
2022/02/18 13:26:01;;;;;;;2.70;1.60;;;;;;;14.09;37.46;100871.93;1425132;100;21123;-72
2022/02/18 13:28:41;;;;;;;2.33;1.65;;;;;;;14.11;38.43;100886.67;1423501;100;21639;-74
2022/02/18 13:31:11;;;;;;;3.72;1.52;;;;;;;14.14;38.48;100893.55;1424028;100;21092;-73
2022/02/18 13:33:40;;;;;;;2.75;1.55;;;;;;;14.14;38.59;100894.85;1423060;98;21198;-74
2022/02/18 13:36:18;;;;;;;3.40;1.10;;;;;;;14.12;39.57;100908.00;1425511;100;21103;-71
2022/02/18 13:38:57;;;;;;;2.52;1.80;;;;;;;14.11;39.46;100902.82;1391083;103;21215;-72
2022/02/18 13:41:27;;;;;;;1.55;1.27;;;;;;;14.08;38.96;100913.38;1390454;103;21110;-75
2022/02/18 13:43:57;;;;;;;2.35;1.27;;;;;;;14.04;39.23;100920.48;1393862;102;21143;-78
2022/02/18 13:46:37;;;;;;;1.62;1.40;;;;;;;13.97;39.53;100920.30;1392648;102;21147;-73
2022/02/18 13:49:13;;;;;;;3.33;1.45;;;;;;;13.91;39.39;100928.32;1392742;102;21123;-73
2022/02/18 13:51:57;;;;;;;2.00;1.57;;;;;;;13.83;39.59;100921.17;1355652;104;21254;-71
2022/02/18 13:54:28;;;;;;;2.58;1.75;;;;;;;13.77;39.23;100937.07;1378045;102;21142;-71
2022/02/18 13:57:08;;;;;;;5.05;2.05;;;;;;;13.76;38.55;100939.30;1390549;102;21683;-72
2022/02/18 13:59:35;;;;;;;2.60;1.62;;;;;;;13.76;38.67;100952.37;1390438;102;21175;-72
2022/02/18 14:02:06;;;;;;;3.58;2.05;;;;;;;13.78;38.72;100953.18;1391127;102;21156;-77
2022/02/18 14:04:38;;;;;;;2.52;2.02;;;;;;;13.77;38.75;100952.31;1417686;98;21088;-72
2022/02/18 14:07:09;;;;;;;2.15;1.80;;;;;;;13.76;38.56;100964.14;1483428;93;21080;-77
2022/02/18 14:09:43;;;;;;;2.95;2.10;;;;;;;13.70;38.41;100961.24;1475990;96;21109;-71
2022/02/18 14:12:11;;;;;;;3.33;2.15;;;;;;;13.65;38.22;100963.61;1501414;93;21073;-73
2022/02/18 14:14:39;;;;;;;2.50;2.10;;;;;;;13.59;38.55;100982.10;1501150;95;21598;-73
2022/02/18 14:17:06;;;;;;;2.75;1.80;;;;;;;13.53;38.67;100978.37;1477124;96;21612;-76
2022/02/18 14:19:52;;;;;;;3.75;2.98;;;;;;;13.47;38.51;100983.34;1512773;93;21596;-74
2022/02/18 14:22:34;;;;;;;6.83;6.03;;;;;;;13.43;38.73;100986.08;1534277;92;21145;-72
2022/02/18 14:25:23;;;;;;;7.28;5.97;;;;;;;13.37;39.45;100992.80;1480798;97;21131;-73
2022/02/18 14:27:51;;;;;;;4.60;3.72;;;;;;;13.33;39.82;100993.80;1480976;97;21133;-76
2022/02/18 14:30:17;;;;;;;11.65;4.80;;;;;;;13.28;39.73;101002.20;1483571;95;21116;-73
2022/02/18 14:32:44;;;;;;;13.65;11.33;;;;;;;13.24;40.19;101004.50;1483285;97;21091;-72
2022/02/18 14:35:18;;;;;;;9.08;8.18;;;;;;;13.21;39.91;101017.67;1475111;92;21060;-73
2022/02/18 14:38:04;;;;;;;5.42;4.87;;;;;;;13.19;39.87;101024.70;1544670;92;21114;-71
2022/02/18 14:40:47;;;;;;;6.50;3.22;;;;;;;13.17;40.09;101030.41;1596275;89;21541;-71
2022/02/18 14:43:14;;;;;;;5.53;3.58;;;;;;;13.16;40.34;101035.22;1606881;89;21041;-72
2022/02/18 14:45:42;;;;;;;4.47;3.50;;;;;;;13.15;40.50;101042.19;1607520;89;21029;-75
2022/02/18 14:48:10;;;;;;;5.95;4.40;;;;;;;13.13;40.54;101048.38;1613276;88;21099;-72
2022/02/18 14:50:40;;;;;;;7.40;4.75;;;;;;;13.14;40.48;101050.08;1615618;88;21499;-72
2022/02/18 14:53:14;;;;;;;5.97;3.85;;;;;;;13.13;40.55;101060.14;1615609;88;21544;-72
2022/02/18 14:55:44;;;;;;;4.83;3.27;;;;;;;13.14;40.79;101060.53;1615423;88;21083;-71
2022/02/18 14:58:09;;;;;;;4.22;3.40;;;;;;;13.15;40.87;101073.55;1575191;91;21083;-71
2022/02/18 15:00:35;;;;;;;7.75;5.42;;;;;;;13.17;40.80;101070.91;1570078;91;21094;-71
2022/02/18 15:03:04;;;;;;;12.33;8.68;;;;;;;13.18;41.02;101083.06;1569062;91;21549;-74
2022/02/18 15:05:37;;;;;;;10.90;6.28;;;;;;;13.19;40.97;101084.80;1569522;91;21070;-71
2022/02/18 15:08:05;;;;;;;7.10;5.10;;;;;;;13.18;41.23;101089.59;1569762;90;21578;-74
2022/02/18 15:10:34;;;;;;;6.17;3.90;;;;;;;13.20;41.43;101095.63;1569747;91;21055;-72
2022/02/18 15:13:04;;;;;;;5.85;4.03;;;;;;;13.21;41.48;101102.59;1569787;91;21124;-74
2022/02/18 15:15:33;;;;;;;6.30;4.25;;;;;;;13.21;41.50;101109.13;1588666;89;21102;-71
2022/02/18 15:18:02;;;;;;;8.65;3.65;;;;;;;13.20;41.79;101113.92;1603364;89;21076;-71
2022/02/18 15:20:28;;;;;;;5.85;3.55;;;;;;;13.21;41.59;101116.97;1661850;86;21114;-71
2022/02/18 15:22:55;;;;;;;8.98;5.15;;;;;;;13.23;41.38;101123.01;1659503;86;21037;-72
2022/02/18 15:25:22;;;;;;;5.97;3.62;;;;;;;13.21;40.89;101141.79;1660312;86;21065;-74
2022/02/18 15:27:49;;;;;;;6.20;3.70;;;;;;;13.13;41.01;101147.66;1676718;83;21026;-72
2022/02/18 15:35:46;;;;;;;4.05;2.80;;;;;;;12.84;41.96;101160.95;1705975;83;20994;-76
2022/02/18 15:38:14;;;;;;;6.08;2.87;;;;;;;12.79;41.85;101173.28;1708980;82;21072;-73
2022/02/18 15:43:28;;;;;;;4.83;2.87;;;;;;;12.72;41.23;101184.76;1710741;82;21049;-71
2022/02/18 15:45:54;;;;;;;4.00;2.42;;;;;;;12.69;41.03;101186.16;1734244;82;21057;-73
2022/02/18 15:48:21;;;;;;;4.28;2.55;;;;;;;12.70;41.02;101194.82;1735304;82;21064;-74
2022/02/18 15:50:48;;;;;;;3.52;2.30;;;;;;;12.70;40.81;101195.69;1703277;83;21006;-73
2022/02/18 15:53:16;;;;;;;3.85;2.20;;;;;;;12.70;40.90;101207.88;1704538;83;21470;-69
2022/02/18 15:55:43;;;;;;;5.17;3.08;;;;;;;12.70;41.26;101211.79;1701506;83;21086;-72
2022/02/18 15:58:12;;;;;;;6.72;3.27;;;;;;;12.69;41.62;101214.01;1675146;85;21032;-72
2022/02/18 16:00:40;;;;;;;4.03;2.77;;;;;;;12.68;41.94;101223.59;1734840;82;21033;-73
2022/02/18 16:03:06;;;;;;;3.62;2.75;;;;;;;12.65;42.22;101226.25;1704811;82;21510;-71
2022/02/18 16:05:33;;;;;;;5.25;3.25;;;;;;;12.63;42.47;101228.03;1736355;82;21549;-72
2022/02/18 16:08:00;;;;;;;3.45;2.65;;;;;;;12.60;42.67;101239.88;1704781;83;21006;-76
2022/02/18 16:12:55;;;;;;;4.12;3.22;;;;;;;12.53;43.12;101247.41;1655072;87;21074;-71
2022/02/18 16:15:21;;;;;;;5.30;3.20;;;;;;;12.50;43.33;101251.41;1687527;84;21571;-73
2022/02/18 16:17:51;;;;;;;6.53;3.95;;;;;;;12.45;43.28;101259.77;1707245;84;21045;-70
2022/02/18 16:20:18;;;;;;;6.37;4.05;;;;;;;12.40;43.45;101264.69;1701560;84;21048;-72
2022/02/18 16:22:45;;;;;;;6.67;4.42;;;;;;;12.36;43.32;101263.03;1707432;84;21052;-77
2022/02/18 16:25:12;;;;;;;6.80;4.00;;;;;;;12.31;43.36;101270.09;1707217;84;21029;-71
2022/02/18 16:27:38;;;;;;;5.62;4.45;;;;;;;12.23;43.43;101265.91;1707047;83;21563;-71
2022/02/18 16:30:07;;;;;;;7.62;4.33;;;;;;;12.19;43.46;101279.03;1707359;84;21012;-70
2022/02/18 16:32:37;;;;;;;7.62;4.87;;;;;;;12.14;43.58;101280.86;1707063;84;21075;-75
2022/02/18 16:35:04;;;;;;;5.65;4.05;;;;;;;12.09;43.64;101283.58;1707265;84;20984;-72
2022/02/18 16:37:32;;;;;;;7.87;4.65;;;;;;;12.05;43.72;101288.88;1703928;84;21037;-70
2022/02/18 16:39:58;;;;;;;8.23;5.00;;;;;;;12.02;43.63;101291.53;1676046;83;21117;-71
2022/02/18 16:42:26;;;;;;;7.55;5.10;;;;;;;11.99;43.77;101296.83;1674966;85;21078;-71
2022/02/18 16:44:52;;;;;;;6.55;4.70;;;;;;;11.96;43.82;101304.69;1675721;83;21091;-72
2022/02/18 16:47:18;;;;;;;8.25;4.97;;;;;;;11.92;43.79;101310.85;1675320;85;21004;-72
2022/02/18 16:49:46;;;;;;;7.40;5.58;;;;;;;11.87;43.94;101321.83;1675696;85;21095;-71
2022/02/18 16:52:12;;;;;;;9.68;5.92;;;;;;;11.81;44.04;101316.73;1675654;85;21031;-72
2022/02/18 16:54:40;;;;;;;10.32;6.40;;;;;;;11.77;44.12;101322.85;1675558;83;21071;-70
2022/02/18 16:57:08;;;;;;;10.38;7.35;;;;;;;11.72;44.20;101324.70;1675706;85;21107;-71
2022/02/18 16:59:35;;;;;;;11.75;7.67;;;;;;;11.68;44.33;101333.45;1675954;85;21015;-73
2022/02/18 17:02:03;;;;;;;9.25;6.87;;;;;;;11.66;44.51;101337.80;1675222;85;21087;-72
2022/02/18 17:04:29;;;;;;;10.58;8.13;;;;;;;11.63;44.50;101349.14;1675547;85;21068;-71
2022/02/18 17:06:56;;;;;;;12.18;7.75;;;;;;;11.63;44.60;101352.18;1675744;85;21000;-74
2022/02/18 17:09:23;;;;;;;11.90;8.13;;;;;;;11.60;44.67;101353.55;1707734;81;20995;-73
2022/02/18 17:11:49;;;;;;;14.00;8.90;;;;;;;11.58;44.69;101361.84;1759398;81;21030;-71
2022/02/18 17:14:16;;;;;;;11.85;7.75;;;;;;;11.55;44.66;101366.65;1765282;81;21066;-71
2022/02/18 17:16:42;;;;;;;13.45;6.90;;;;;;;11.53;44.17;101367.55;1757452;81;20987;-73
2022/02/18 17:19:09;;;;;;;9.05;6.00;;;;;;;11.48;44.05;101374.59;1760116;80;21364;-72
2022/02/18 17:21:36;;;;;;;8.60;5.58;;;;;;;11.43;44.08;101383.35;1760860;81;21049;-72
2022/02/18 17:24:02;;;;;;;6.12;5.20;;;;;;;11.39;43.84;101376.47;1761416;80;20935;-77
2022/02/18 17:26:30;;;;;;;8.20;5.90;;;;;;;11.34;43.52;101382.17;1763342;81;21007;-71
2022/02/18 17:28:58;;;;;;;8.15;5.80;;;;;;;11.29;43.85;101386.58;1763595;81;21042;-74
2022/02/18 17:31:24;;;;;;;9.13;6.20;;;;;;;11.26;43.92;101394.89;1760990;81;20982;-72